Observation data for Hart on 10/13/2019      Previous  Date       Current Mesonet Observations  Soil Data  Daily Summary Page  Observations in Plain Language
KHRS 130500Z 21010KT 09/02 A2998 RMK A01 T00860021  RH  064%=      5-min Rain = 0
KHRS 130505Z 21010KT 09/02 A2998 RMK A01 T00900022  RH  063%=      5-min Rain = 0
KHRS 130510Z 21010KT 09/02 A2998 RMK A01 T00900023  RH  064%=      5-min Rain = 0
KHRS 130515Z 21009KT 09/02 A2998 RMK A01 T00910023  RH  063%=      5-min Rain = 0
KHRS 130520Z 22007KT 09/02 A2999 RMK A01 T00900024  RH  064%=      5-min Rain = 0
KHRS 130525Z 22007KT 09/02 A2998 RMK A01 T00870024  RH  066%=      5-min Rain = 0
KHRS 130530Z 23007KT 08/03 A2998 RMK A01 T00840025  RH  067%=      5-min Rain = 0
KHRS 130535Z 22007KT 08/03 A2998 RMK A01 T00810025  RH  068%=      5-min Rain = 0
KHRS 130540Z 22007KT 08/03 A2998 RMK A01 T00790025  RH  069%=      5-min Rain = 0
KHRS 130545Z 22006KT 08/03 A2998 RMK A01 T00780026  RH  070%=      5-min Rain = 0
KHRS 130550Z 22006KT 08/03 A2998 RMK A01 T00780026  RH  071%=      5-min Rain = 0
KHRS 130555Z 22005KT 08/03 A2998 RMK A01 T00770026  RH  071%=      5-min Rain = 0
KHRS 130600Z 22005KT 08/03 A2998 RMK A01 T00760026  RH  071%=      5-min Rain = 0
KHRS 130605Z 22005KT 07/03 A2998 RMK A01 T00740026  RH  072%=      5-min Rain = 0
KHRS 130610Z 21006KT 07/03 A2998 RMK A01 T00710026  RH  074%=      5-min Rain = 0
KHRS 130615Z 22007KT 07/03 A2998 RMK A01 T00690027  RH  076%=      5-min Rain = 0
KHRS 130620Z 21007KT 07/03 A2998 RMK A01 T00680027  RH  076%=      5-min Rain = 0
KHRS 130625Z 21007KT 06/03 A2998 RMK A01 T00640027  RH  078%=      5-min Rain = 0
KHRS 130630Z 21007KT 06/03 A2998 RMK A01 T00640029  RH  079%=      5-min Rain = 0
KHRS 130635Z 21007KT 07/03 A2998 RMK A01 T00690030  RH  077%=      5-min Rain = 0
KHRS 130640Z 22006KT 07/03 A2998 RMK A01 T00710029  RH  076%=      5-min Rain = 0
KHRS 130645Z 22005KT 07/03 A2998 RMK A01 T00700029  RH  076%=      5-min Rain = 0
KHRS 130650Z 23004KT 07/03 A2998 RMK A01 T00690028  RH  077%=      5-min Rain = 0
KHRS 130655Z 22005KT 07/03 A2998 RMK A01 T00680028  RH  077%=      5-min Rain = 0
KHRS 130700Z 23005KT 07/03 A2998 RMK A01 T00680028  RH  077%=      5-min Rain = 0
KHRS 130705Z 23005KT 07/03 A2998 RMK A01 T00680028  RH  077%=      5-min Rain = 0
KHRS 130710Z 23006KT 07/03 A2998 RMK A01 T00670028  RH  077%=      5-min Rain = 0
KHRS 130715Z 23007KT 07/03 A2998 RMK A01 T00660028  RH  078%=      5-min Rain = 0
KHRS 130720Z 23007KT 07/03 A2998 RMK A01 T00660028  RH  078%=      5-min Rain = 0
KHRS 130725Z 23007KT 07/03 A2998 RMK A01 T00660027  RH  077%=      5-min Rain = 0
KHRS 130730Z 23006KT 07/03 A2998 RMK A01 T00660027  RH  077%=      5-min Rain = 0
KHRS 130735Z 24006KT 07/03 A2998 RMK A01 T00660027  RH  077%=      5-min Rain = 0
KHRS 130740Z 23006KT 07/03 A2998 RMK A01 T00650026  RH  077%=      5-min Rain = 0
KHRS 130745Z 23007KT 06/03 A2998 RMK A01 T00620026  RH  079%=      5-min Rain = 0
KHRS 130750Z 23008KT 06/03 A2998 RMK A01 T00610027  RH  080%=      5-min Rain = 0
KHRS 130755Z 23008KT 07/03 A2998 RMK A01 T00670028  RH  077%=      5-min Rain = 0
KHRS 130800Z 23008KT 07/03 A2997 RMK A01 T00720028  RH  075%=      5-min Rain = 0
KHRS 130805Z 23008KT 07/03 A2997 RMK A01 T00730027  RH  074%=      5-min Rain = 0
KHRS 130810Z 22008KT 07/03 A2997 RMK A01 T00710027  RH  074%=      5-min Rain = 0
KHRS 130815Z 22008KT 07/03 A2997 RMK A01 T00700028  RH  075%=      5-min Rain = 0
KHRS 130820Z 22007KT 07/03 A2997 RMK A01 T00700028  RH  075%=      5-min Rain = 0
KHRS 130825Z 23007KT 07/03 A2997 RMK A01 T00690028  RH  076%=      5-min Rain = 0
KHRS 130830Z 23007KT 07/03 A2997 RMK A01 T00700027  RH  075%=      5-min Rain = 0
KHRS 130835Z 23008KT 07/03 A2997 RMK A01 T00730027  RH  074%=      5-min Rain = 0
KHRS 130840Z 23008KT 07/03 A2997 RMK A01 T00740027  RH  073%=      5-min Rain = 0
KHRS 130845Z 23007KT 07/03 A2997 RMK A01 T00740027  RH  073%=      5-min Rain = 0
KHRS 130850Z 23007KT 07/03 A2997 RMK A01 T00720027  RH  074%=      5-min Rain = 0
KHRS 130855Z 22007KT 07/03 A2996 RMK A01 T00730027  RH  074%=      5-min Rain = 0
KHRS 130900Z 22007KT 07/03 A2996 RMK A01 T00730027  RH  074%=      5-min Rain = 0
KHRS 130905Z 22007KT 07/03 A2996 RMK A01 T00720027  RH  074%=      5-min Rain = 0
KHRS 130910Z 22006KT 07/03 A2996 RMK A01 T00710027  RH  075%=      5-min Rain = 0
KHRS 130915Z 23007KT 07/03 A2996 RMK A01 T00700027  RH  075%=      5-min Rain = 0
KHRS 130920Z 23006KT 07/03 A2996 RMK A01 T00700027  RH  075%=      5-min Rain = 0
KHRS 130925Z 23007KT 07/03 A2996 RMK A01 T00700027  RH  075%=      5-min Rain = 0
KHRS 130930Z 23007KT 07/03 A2996 RMK A01 T00700027  RH  075%=      5-min Rain = 0
KHRS 130935Z 23007KT 07/03 A2996 RMK A01 T00700027  RH  075%=      5-min Rain = 0
KHRS 130940Z 24006KT 07/03 A2996 RMK A01 T00700027  RH  075%=      5-min Rain = 0
KHRS 130945Z 24006KT 07/03 A2996 RMK A01 T00690026  RH  075%=      5-min Rain = 0
KHRS 130950Z 24005KT 07/03 A2996 RMK A01 T00660026  RH  076%=      5-min Rain = 0
KHRS 130955Z 25005KT 07/03 A2996 RMK A01 T00650025  RH  077%=      5-min Rain = 0
KHRS 131000Z 24005KT 06/03 A2996 RMK A01 T00630025  RH  078%=      5-min Rain = 0
KHRS 131005Z 23005KT 06/03 A2995 RMK A01 T00600025  RH  079%=      5-min Rain = 0
KHRS 131010Z 23006KT 06/03 A2995 RMK A01 T00580025  RH  081%=      5-min Rain = 0
KHRS 131015Z 24006KT 06/03 A2995 RMK A01 T00580026  RH  081%=      5-min Rain = 0
KHRS 131020Z 24005KT 06/03 A2995 RMK A01 T00580026  RH  081%=      5-min Rain = 0
KHRS 131025Z 24006KT 06/03 A2995 RMK A01 T00580026  RH  081%=      5-min Rain = 0
KHRS 131030Z 23006KT 06/03 A2995 RMK A01 T00560026  RH  082%=      5-min Rain = 0
KHRS 131035Z 30006KT 06/03 A2996 RMK A01 T00570028  RH  083%=      5-min Rain = 0
KHRS 131040Z 28005KT 06/03 A2996 RMK A01 T00570030  RH  084%=      5-min Rain = 0
KHRS 131045Z 26005KT 06/03 A2996 RMK A01 T00570029  RH  083%=      5-min Rain = 0
KHRS 131050Z 27005KT 06/03 A2996 RMK A01 T00560028  RH  083%=      5-min Rain = 0
KHRS 131055Z 26006KT 05/03 A2996 RMK A01 T00540027  RH  084%=      5-min Rain = 0
KHRS 131100Z 25007KT 05/03 A2996 RMK A01 T00540028  RH  085%=      5-min Rain = 0
KHRS 131105Z 25008KT 05/03 A2996 RMK A01 T00540028  RH  084%=      5-min Rain = 0
KHRS 131110Z 24008KT 06/03 A2996 RMK A01 T00570030  RH  083%=      5-min Rain = 0
KHRS 131115Z 24008KT 06/03 A2996 RMK A01 T00590030  RH  082%=      5-min Rain = 0
KHRS 131120Z 23007KT 06/03 A2996 RMK A01 T00590029  RH  082%=      5-min Rain = 0
KHRS 131125Z 23007KT 06/03 A2995 RMK A01 T00570029  RH  083%=      5-min Rain = 0
KHRS 131130Z 23008KT 06/03 A2995 RMK A01 T00560029  RH  084%=      5-min Rain = 0
KHRS 131135Z 23007KT 06/03 A2996 RMK A01 T00560029  RH  084%=      5-min Rain = 0
KHRS 131140Z 24006KT 06/03 A2996 RMK A01 T00560030  RH  084%=      5-min Rain = 0
KHRS 131145Z 25006KT 06/03 A2996 RMK A01 T00560029  RH  084%=      5-min Rain = 0
KHRS 131150Z 25006KT 06/03 A2996 RMK A01 T00550029  RH  084%=      5-min Rain = 0
KHRS 131155Z 25006KT 06/03 A2996 RMK A01 T00560030  RH  085%=      5-min Rain = 0
KHRS 131200Z 26006KT 06/03 A2996 RMK A01 T00560030  RH  085%=      5-min Rain = 0
KHRS 131205Z 25006KT 06/03 A2996 RMK A01 T00570031  RH  085%=      5-min Rain = 0
KHRS 131210Z 26007KT 06/03 A2996 RMK A01 T00610034  RH  084%=      5-min Rain = 0
KHRS 131215Z 28008KT 07/04 A2996 RMK A01 T00670035  RH  081%=      5-min Rain = 0
KHRS 131220Z 27008KT 07/03 A2996 RMK A01 T00670033  RH  080%=      5-min Rain = 0
KHRS 131225Z 28007KT 07/03 A2996 RMK A01 T00660034  RH  081%=      5-min Rain = 0
KHRS 131230Z 27008KT 07/03 A2996 RMK A01 T00650034  RH  081%=      5-min Rain = 0
KHRS 131235Z 28008KT 07/04 A2996 RMK A01 T00660035  RH  081%=      5-min Rain = 0
KHRS 131240Z 27007KT 07/03 A2996 RMK A01 T00660034  RH  081%=      5-min Rain = 0
KHRS 131245Z 26007KT 07/03 A2996 RMK A01 T00650034  RH  082%=      5-min Rain = 0
KHRS 131250Z 27007KT 07/04 A2996 RMK A01 T00660035  RH  081%=      5-min Rain = 0
KHRS 131255Z 27006KT 07/04 A2997 RMK A01 T00660035  RH  081%=      5-min Rain = 0
KHRS 131300Z 28006KT 07/03 A2997 RMK A01 T00660034  RH  081%=      5-min Rain = 0
KHRS 131305Z 28006KT 06/03 A2997 RMK A01 T00640034  RH  082%=      5-min Rain = 0
KHRS 131310Z 27007KT 06/04 A2996 RMK A01 T00640035  RH  083%=      5-min Rain = 0
KHRS 131315Z 26007KT 07/04 A2996 RMK A01 T00670037  RH  082%=      5-min Rain = 0
KHRS 131320Z 27006KT 07/04 A2997 RMK A01 T00700038  RH  081%=      5-min Rain = 0
KHRS 131325Z 27005KT 07/04 A2997 RMK A01 T00730039  RH  080%=      5-min Rain = 0
KHRS 131330Z 25005KT 08/04 A2997 RMK A01 T00750040  RH  079%=      5-min Rain = 0
KHRS 131335Z 25007KT 08/04 A2997 RMK A01 T00760040  RH  079%=      5-min Rain = 0
KHRS 131340Z 25008KT 08/04 A2997 RMK A01 T00790041  RH  078%=      5-min Rain = 0
KHRS 131345Z 26008KT 08/04 A2997 RMK A01 T00810041  RH  077%=      5-min Rain = 0
KHRS 131350Z 26009KT 09/04 A2997 RMK A01 T00850042  RH  076%=      5-min Rain = 0
KHRS 131355Z 27009KT 09/04 A2997 RMK A01 T00890043  RH  074%=      5-min Rain = 0
KHRS 131400Z 27010KT 09/04 A2997 RMK A01 T00930044  RH  073%=      5-min Rain = 0
KHRS 131405Z 27010KT 10/04 A2997 RMK A01 T00980044  RH  070%=      5-min Rain = 0
KHRS 131410Z 27008KT 10/05 A2998 RMK A01 T01030046  RH  069%=      5-min Rain = 0
KHRS 131415Z 27009KT 11/05 A2998 RMK A01 T01080047  RH  067%=      5-min Rain = 0
KHRS 131420Z 26009KT 11/05 A2998 RMK A01 T01130047  RH  064%=      5-min Rain = 0
KHRS 131425Z 26009KT 12/05 A2998 RMK A01 T01180047  RH  062%=      5-min Rain = 0
KHRS 131430Z 26008KT 12/05 A2998 RMK A01 T01240049  RH  061%=      5-min Rain = 0
KHRS 131435Z 26008KT 13/05 A2999 RMK A01 T01290050  RH  060%=      5-min Rain = 0
KHRS 131440Z 27008KT 13/05 A2999 RMK A01 T01330049  RH  058%=      5-min Rain = 0
KHRS 131445Z 27008KT 14/05 A2999 RMK A01 T01360049  RH  056%=      5-min Rain = 0
KHRS 131450Z 26008KT 14/05 A2999 RMK A01 T01400050  RH  055%=      5-min Rain = 0
KHRS 131455Z 27008KT 14/05 A2999 RMK A01 T01430048  RH  054%=      5-min Rain = 0
KHRS 131500Z 27008KT 15/05 A2999 RMK A01 T01450047  RH  053%=      5-min Rain = 0
KHRS 131505Z 25007KT 15/05 A2999 RMK A01 T01500053  RH  053%=      5-min Rain = 0
KHRS 131510Z 26007KT 16/05 A2999 RMK A01 T01550054  RH  052%=      5-min Rain = 0
KHRS 131515Z 25008KT 16/05 A2999 RMK A01 T01590053  RH  050%=      5-min Rain = 0
KHRS 131520Z 26006KT 16/06 A2999 RMK A01 T01640057  RH  050%=      5-min Rain = 0
KHRS 131525Z 25006KT 17/06 A2999 RMK A01 T01710056  RH  048%=      5-min Rain = 0
KHRS 131530Z 26005KT 18/06 A2999 RMK A01 T01750057  RH  046%=      5-min Rain = 0
KHRS 131535Z 28009G14KT 18/05 A2999 RMK A01 T01840048  RH  041%=      5-min Rain = 0
KHRS 131540Z 28008KT 19/05 A2999 RMK A01 T01900047  RH  039%=      5-min Rain = 0
KHRS 131545Z 27010KT 20/04 A30 RMK A01 T01950044  RH  037%=      5-min Rain = 0
KHRS 131550Z 27008KT 20/05 A30 RMK A01 T01980046  RH  037%=      5-min Rain = 0
KHRS 131555Z 28008KT 20/05 A30 RMK A01 T02010046  RH  037%=      5-min Rain = 0
KHRS 131600Z 27009KT 21/04 A30 RMK A01 T02050043  RH  035%=      5-min Rain = 0
KHRS 131605Z 27009KT 21/04 A30 RMK A01 T02090042  RH  034%=      5-min Rain = 0
KHRS 131610Z 27009KT 21/04 A30 RMK A01 T02110041  RH  033%=      5-min Rain = 0
KHRS 131615Z 27008KT 21/04 A30 RMK A01 T02140041  RH  033%=      5-min Rain = 0
KHRS 131620Z 28008KT 22/04 A30 RMK A01 T02180039  RH  031%=      5-min Rain = 0
KHRS 131625Z 28008KT 22/04 A30 RMK A01 T02210037  RH  030%=      5-min Rain = 0
KHRS 131630Z 27008KT 23/04 A30 RMK A01 T02250036  RH  029%=      5-min Rain = 0
KHRS 131635Z 26010KT 23/03 A30 RMK A01 T02290032  RH  028%=      5-min Rain = 0
KHRS 131640Z 26009KT 23/03 A30 RMK A01 T02330030  RH  027%=      5-min Rain = 0
KHRS 131645Z 27009KT 23/03 A30 RMK A01 T02340025  RH  026%=      5-min Rain = 0
KHRS 131650Z 27009KT 24/03 A30 RMK A01 T02360028  RH  026%=      5-min Rain = 0
KHRS 131655Z 29010KT 24/03 A30 RMK A01 T02410027  RH  025%=      5-min Rain = 0
KHRS 131700Z 29010KT 24/02 A30 RMK A01 T02400018  RH  024%=      5-min Rain = 0
KHRS 131705Z 29010G16KT 24/02 A30 RMK A01 T02440022  RH  024%=      5-min Rain = 0
KHRS 131710Z 28011KT 24/02 A30 RMK A01 T02440015  RH  023%=      5-min Rain = 0
KHRS 131715Z 29011KT 25/02 A2999 RMK A01 T02450017  RH  023%=      5-min Rain = 0
KHRS 131720Z 29011KT 25/02 A2999 RMK A01 T02470016  RH  022%=      5-min Rain = 0
KHRS 131725Z 28012G17KT 25/02 A2999 RMK A01 T02480015  RH  022%=      5-min Rain = 0
KHRS 131730Z 29011KT 25/02 A2999 RMK A01 T02480017  RH  022%=      5-min Rain = 0
KHRS 131735Z 29013G18KT 25/01 A2999 RMK A01 T02480005  RH  020%=      5-min Rain = 0
KHRS 131740Z 29012KT 25/00 A2999 RMK A01 T02480003  RH  020%=      5-min Rain = 0
KHRS 131745Z 30012KT 25/01 A2999 RMK A01 T02500005  RH  020%=      5-min Rain = 0
KHRS 131750Z 30011KT 25/01 A2999 RMK A01 T02510007  RH  020%=      5-min Rain = 0
KHRS 131755Z 29011KT 25/00 A2999 RMK A01 T02520001  RH  019%=      5-min Rain = 0
KHRS 131800Z 27011KT 26/M01 A2999 RMK A01 T02551005  RH  018%=      5-min Rain = 0
KHRS 131805Z 28010G15KT 25/M02 A2999 RMK A01 T02541015  RH  017%=      5-min Rain = 0
KHRS 131810Z 28010G16KT 26/M02 A2999 RMK A01 T02561018  RH  017%=      5-min Rain = 0
KHRS 131815Z 29012KT 26/M01 A2999 RMK A01 T02561014  RH  017%=      5-min Rain = 0
KHRS 131820Z 28012KT 26/M02 A2999 RMK A01 T02581021  RH  016%=      5-min Rain = 0
KHRS 131825Z 27011KT 26/M02 A2999 RMK A01 T02581022  RH  016%=      5-min Rain = 0
KHRS 131830Z 27011G17KT 26/M03 A2998 RMK A01 T02581028  RH  015%=      5-min Rain = 0
KHRS 131835Z 27011G16KT 26/M03 A2998 RMK A01 T02591025  RH  015%=      5-min Rain = 0
KHRS 131840Z 29011G16KT 26/M02 A2998 RMK A01 T02601023  RH  016%=      5-min Rain = 0
KHRS 131845Z 27010KT 26/M03 A2998 RMK A01 T02591029  RH  015%=      5-min Rain = 0
KHRS 131850Z 27010KT 26/M03 A2998 RMK A01 T02621029  RH  015%=      5-min Rain = 0
KHRS 131855Z 29009KT 26/M02 A2998 RMK A01 T02631018  RH  016%=      5-min Rain = 0
KHRS 131900Z 26009KT 26/M03 A2998 RMK A01 T02641030  RH  014%=      5-min Rain = 0
KHRS 131905Z 26009G16KT 27/M02 A2997 RMK A01 T02651024  RH  015%=      5-min Rain = 0
KHRS 131910Z 29009KT 26/M02 A2997 RMK A01 T02641022  RH  015%=      5-min Rain = 0
KHRS 131915Z 28008KT 26/M02 A2997 RMK A01 T02641024  RH  015%=      5-min Rain = 0
KHRS 131920Z 28008G17KT 27/M01 A2996 RMK A01 T02671012  RH  016%=      5-min Rain = 0
KHRS 131925Z 27009G14KT 27/M02 A2996 RMK A01 T02671016  RH  016%=      5-min Rain = 0
KHRS 131930Z 28009G14KT 27/M02 A2996 RMK A01 T02651020  RH  015%=      5-min Rain = 0
KHRS 131935Z 27008G18KT 26/M02 A2996 RMK A01 T02631019  RH  016%=      5-min Rain = 0
KHRS 131940Z 28010KT 27/M02 A2996 RMK A01 T02681020  RH  015%=      5-min Rain = 0
KHRS 131945Z 27007G13KT 27/M02 A2995 RMK A01 T02671019  RH  015%=      5-min Rain = 0
KHRS 131950Z 28010G15KT 27/M03 A2995 RMK A01 T02691026  RH  014%=      5-min Rain = 0
KHRS 131955Z 27011G17KT 27/M02 A2995 RMK A01 T02691021  RH  015%=      5-min Rain = 0
KHRS 132000Z 26009G14KT 27/M02 A2995 RMK A01 T02711024  RH  014%=      5-min Rain = 0
KHRS 132005Z 28007KT 27/M02 A2995 RMK A01 T02711017  RH  015%=      5-min Rain = 0
KHRS 132010Z 26009G16KT 27/M02 A2994 RMK A01 T02741019  RH  015%=      5-min Rain = 0
KHRS 132015Z 27011KT 27/M03 A2994 RMK A01 T02711027  RH  014%=      5-min Rain = 0
KHRS 132020Z 25010G16KT 27/M03 A2994 RMK A01 T02701032  RH  014%=      5-min Rain = 0
KHRS 132025Z 24012G17KT 27/M03 A2994 RMK A01 T02711029  RH  014%=      5-min Rain = 0
KHRS 132030Z 26012G18KT 27/M03 A2994 RMK A01 T02711030  RH  014%=      5-min Rain = 0
KHRS 132035Z 26009G14KT 27/M03 A2994 RMK A01 T02711029  RH  014%=      5-min Rain = 0
KHRS 132040Z 25009G18KT 27/M02 A2994 RMK A01 T02731019  RH  015%=      5-min Rain = 0
KHRS 132045Z 26011G17KT 27/M02 A2994 RMK A01 T02731021  RH  015%=      5-min Rain = 0
KHRS 132050Z 26012G17KT 27/M02 A2994 RMK A01 T02721022  RH  014%=      5-min Rain = 0
KHRS 132055Z 25010KT 27/M02 A2994 RMK A01 T02721017  RH  015%=      5-min Rain = 0
KHRS 132100Z 25008KT 27/M01 A2994 RMK A01 T02721013  RH  016%=      5-min Rain = 0
KHRS 132105Z 23008KT 27/M01 A2994 RMK A01 T02731010  RH  016%=      5-min Rain = 0
KHRS 132110Z 26008G13KT 28/M01 A2994 RMK A01 T02751012  RH  015%=      5-min Rain = 0
KHRS 132115Z 26010KT 28/M02 A2994 RMK A01 T02761017  RH  015%=      5-min Rain = 0
KHRS 132120Z 26008G15KT 27/M02 A2994 RMK A01 T02731018  RH  015%=      5-min Rain = 0
KHRS 132125Z 28009KT 27/M02 A2994 RMK A01 T02731022  RH  015%=      5-min Rain = 0
KHRS 132130Z 27010G15KT 27/M02 A2994 RMK A01 T02731021  RH  015%=      5-min Rain = 0
KHRS 132135Z 25008KT 27/M02 A2994 RMK A01 T02731019  RH  015%=      5-min Rain = 0
KHRS 132140Z 25010KT 27/M03 A2994 RMK A01 T02741026  RH  014%=      5-min Rain = 0
KHRS 132145Z 25009KT 27/M03 A2994 RMK A01 T02721025  RH  014%=      5-min Rain = 0
KHRS 132150Z 26010KT 27/M03 A2994 RMK A01 T02731026  RH  014%=      5-min Rain = 0
KHRS 132155Z 25009G14KT 27/M03 A2994 RMK A01 T02721025  RH  014%=      5-min Rain = 0
KHRS 132200Z 23010G15KT 27/M03 A2994 RMK A01 T02721027  RH  014%=      5-min Rain = 0
KHRS 132205Z 25009G15KT 27/M03 A2994 RMK A01 T02721030  RH  014%=      5-min Rain = 0
KHRS 132210Z 26009KT 27/M03 A2994 RMK A01 T02721027  RH  014%=      5-min Rain = 0
KHRS 132215Z 25008G13KT 27/M02 A2994 RMK A01 T02731023  RH  014%=      5-min Rain = 0
KHRS 132220Z 24010G15KT 27/M03 A2994 RMK A01 T02721031  RH  014%=      5-min Rain = 0
KHRS 132225Z 27008KT 27/M03 A2994 RMK A01 T02701026  RH  014%=      5-min Rain = 0
KHRS 132230Z 25008KT 27/M02 A2994 RMK A01 T02721023  RH  015%=      5-min Rain = 0
KHRS 132235Z 23009G14KT 27/M03 A2994 RMK A01 T02701028  RH  014%=      5-min Rain = 0
KHRS 132240Z 24010G15KT 27/M03 A2994 RMK A01 T02681030  RH  014%=      5-min Rain = 0
KHRS 132245Z 23010KT 27/M03 A2994 RMK A01 T02681025  RH  015%=      5-min Rain = 0
KHRS 132250Z 23011KT 27/M03 A2994 RMK A01 T02671028  RH  014%=      5-min Rain = 0
KHRS 132255Z 23010KT 27/M03 A2994 RMK A01 T02651028  RH  015%=      5-min Rain = 0
KHRS 132300Z 24008G13KT 26/M03 A2994 RMK A01 T02641028  RH  015%=      5-min Rain = 0
KHRS 132305Z 24009KT 26/M03 A2994 RMK A01 T02631028  RH  015%=      5-min Rain = 0
KHRS 132310Z 24008KT 26/M02 A2994 RMK A01 T02621023  RH  015%=      5-min Rain = 0
KHRS 132315Z 24006KT 26/M02 A2994 RMK A01 T02611017  RH  016%=      5-min Rain = 0
KHRS 132320Z 24007KT 26/M02 A2994 RMK A01 T02601023  RH  016%=      5-min Rain = 0
KHRS 132325Z 24006KT 26/M02 A2994 RMK A01 T02581021  RH  016%=      5-min Rain = 0
KHRS 132330Z 23005KT 26/M01 A2994 RMK A01 T02561009  RH  018%=      5-min Rain = 0
KHRS 132335Z 23005KT 25/M01 A2994 RMK A01 T02521006  RH  018%=      5-min Rain = 0
KHRS 132340Z 22005KT 25/M01 A2995 RMK A01 T02481005  RH  019%=      5-min Rain = 0
KHRS 132345Z 22004KT 24/M00 A2995 RMK A01 T02441003  RH  020%=      5-min Rain = 0
KHRS 132350Z 22004KT 24/00 A2995 RMK A01 T02400001  RH  021%=      5-min Rain = 0
KHRS 132355Z 22005KT 24/00 A2995 RMK A01 T02350003  RH  022%=      5-min Rain = 0
KHRS 140000Z 21005KT 23/01 A2995 RMK A01 T02290007  RH  023%=      5-min Rain = 0
KHRS 140005Z 21006KT 22/01 A2995 RMK A01 T02220012  RH  025%=      5-min Rain = 0
KHRS 140010Z 21006KT 22/02 A2995 RMK A01 T02150015  RH  027%=      5-min Rain = 0
KHRS 140015Z 21007KT 21/02 A2995 RMK A01 T02080018  RH  029%=      5-min Rain = 0
KHRS 140020Z 21006KT 20/02 A2995 RMK A01 T02020021  RH  030%=      5-min Rain = 0
KHRS 140025Z 20006KT 20/02 A2995 RMK A01 T02010022  RH  031%=      5-min Rain = 0
KHRS 140030Z 20007KT 20/03 A2996 RMK A01 T02020026  RH  031%=      5-min Rain = 0
KHRS 140035Z 20007KT 20/03 A2996 RMK A01 T01990027  RH  032%=      5-min Rain = 0
KHRS 140040Z 20008KT 20/03 A2996 RMK A01 T02000025  RH  032%=      5-min Rain = 0
KHRS 140045Z 19006KT 19/03 A2996 RMK A01 T01930029  RH  034%=      5-min Rain = 0
KHRS 140050Z 19007KT 18/03 A2996 RMK A01 T01840025  RH  035%=      5-min Rain = 0
KHRS 140055Z 19007KT 18/03 A2997 RMK A01 T01830026  RH  036%=      5-min Rain = 0
KHRS 140100Z 19008KT 18/03 A2997 RMK A01 T01760027  RH  037%=      5-min Rain = 0
KHRS 140105Z 19007KT 18/03 A2997 RMK A01 T01750027  RH  038%=      5-min Rain = 0
KHRS 140110Z 19007KT 17/03 A2997 RMK A01 T01690032  RH  040%=      5-min Rain = 0
KHRS 140115Z 19008KT 17/03 A2997 RMK A01 T01680029  RH  040%=      5-min Rain = 0
KHRS 140120Z 19008KT 17/03 A2997 RMK A01 T01680029  RH  040%=      5-min Rain = 0
KHRS 140125Z 20009KT 17/03 A2997 RMK A01 T01660032  RH  041%=      5-min Rain = 0
KHRS 140130Z 20009KT 16/04 A2997 RMK A01 T01560035  RH  045%=      5-min Rain = 0
KHRS 140135Z 20008KT 15/04 A2997 RMK A01 T01530036  RH  046%=      5-min Rain = 0
KHRS 140140Z 20008KT 15/04 A2998 RMK A01 T01510036  RH  047%=      5-min Rain = 0
KHRS 140145Z 21008KT 15/04 A2998 RMK A01 T01490036  RH  047%=      5-min Rain = 0
KHRS 140150Z 21007KT 15/04 A2998 RMK A01 T01500036  RH  047%=      5-min Rain = 0
KHRS 140155Z 21007KT 15/04 A2998 RMK A01 T01460039  RH  049%=      5-min Rain = 0
KHRS 140200Z 21007KT 15/04 A2998 RMK A01 T01450039  RH  049%=      5-min Rain = 0
KHRS 140205Z 21007KT 14/04 A2998 RMK A01 T01430039  RH  050%=      5-min Rain = 0
KHRS 140210Z 21007KT 14/04 A2998 RMK A01 T01400040  RH  052%=      5-min Rain = 0
KHRS 140215Z 21008KT 14/04 A2998 RMK A01 T01380042  RH  053%=      5-min Rain = 0
KHRS 140220Z 21007KT 13/04 A2998 RMK A01 T01330044  RH  055%=      5-min Rain = 0
KHRS 140225Z 21006KT 13/04 A2998 RMK A01 T01310044  RH  056%=      5-min Rain = 0
KHRS 140230Z 21005KT 13/04 A2998 RMK A01 T01310043  RH  056%=      5-min Rain = 0
KHRS 140235Z 20004KT 13/04 A2998 RMK A01 T01300043  RH  056%=      5-min Rain = 0
KHRS 140240Z 20005KT 13/04 A2998 RMK A01 T01290043  RH  057%=      5-min Rain = 0
KHRS 140245Z 20006KT 13/04 A2998 RMK A01 T01300044  RH  056%=      5-min Rain = 0
KHRS 140250Z 21005KT 13/04 A2998 RMK A01 T01300044  RH  057%=      5-min Rain = 0
KHRS 140255Z 21005KT 13/04 A2998 RMK A01 T01270044  RH  058%=      5-min Rain = 0
KHRS 140300Z 21005KT 13/05 A2998 RMK A01 T01250045  RH  059%=      5-min Rain = 0
KHRS 140305Z 21005KT 12/05 A2998 RMK A01 T01230045  RH  060%=      5-min Rain = 0
KHRS 140310Z 20005KT 12/04 A2998 RMK A01 T01240044  RH  059%=      5-min Rain = 0
KHRS 140315Z 20005KT 13/04 A2998 RMK A01 T01250044  RH  058%=      5-min Rain = 0
KHRS 140320Z 21006KT 12/04 A2998 RMK A01 T01240044  RH  059%=      5-min Rain = 0
KHRS 140325Z 21007KT 12/04 A2998 RMK A01 T01230044  RH  059%=      5-min Rain = 0
KHRS 140330Z 21007KT 12/05 A2999 RMK A01 T01230045  RH  060%=      5-min Rain = 0
KHRS 140335Z 20007KT 12/04 A2998 RMK A01 T01210044  RH  060%=      5-min Rain = 0
KHRS 140340Z 21006KT 12/04 A2999 RMK A01 T01220044  RH  060%=      5-min Rain = 0
KHRS 140345Z 21007KT 12/04 A2999 RMK A01 T01220043  RH  059%=      5-min Rain = 0
KHRS 140350Z 22007KT 12/04 A2999 RMK A01 T01240042  RH  058%=      5-min Rain = 0
KHRS 140355Z 22006KT 12/04 A2999 RMK A01 T01240041  RH  058%=      5-min Rain = 0
KHRS 140400Z 23005KT 12/04 A2999 RMK A01 T01230040  RH  058%=      5-min Rain = 0
KHRS 140405Z 23006KT 12/04 A2999 RMK A01 T01220039  RH  058%=      5-min Rain = 0
KHRS 140410Z 23007KT 12/04 A2999 RMK A01 T01230040  RH  058%=      5-min Rain = 0
KHRS 140415Z 23006KT 12/04 A2999 RMK A01 T01220040  RH  058%=      5-min Rain = 0
KHRS 140420Z 23006KT 12/04 A2999 RMK A01 T01220040  RH  058%=      5-min Rain = 0
KHRS 140425Z 24006KT 12/04 A2999 RMK A01 T01200041  RH  059%=      5-min Rain = 0
KHRS 140430Z 23005KT 12/04 A2999 RMK A01 T01190041  RH  060%=      5-min Rain = 0
KHRS 140435Z 23006KT 12/04 A2999 RMK A01 T01160042  RH  061%=      5-min Rain = 0
KHRS 140440Z 24007KT 11/04 A2999 RMK A01 T01130042  RH  063%=      5-min Rain = 0
KHRS 140445Z 25007KT 11/04 A2999 RMK A01 T01100043  RH  064%=      5-min Rain = 0
KHRS 140450Z 25007KT 11/04 A2999 RMK A01 T01090043  RH  065%=      5-min Rain = 0
KHRS 140455Z 25007KT 11/04 A2999 RMK A01 T01080043  RH  065%=      5-min Rain = 0

Page generated in 0.0182 seconds.